Terminal Aerodrome Forecast
Issued by NWS

Home | Current Version | Previous Version | Text Only | Print | Product List | Glossary On
Versions: 1 2 3 4 5 6 7 8 9 10 11 12 13 14 15 16 17 18 19 20 21 22 23 24 25 26 27 28 29 30 31 32 33 34 35
000
FTUS41 KRNK 042336
TAFLWB
TAF
KLWB 042336Z 0500/0524 05003KT P6SM BKN050
     FM050700 07003KT 5SM BR SCT005 OVC035
     FM050900 00000KT 3SM BR OVC005
     FM051400 09003KT P6SM BKN020
     FM051700 11004KT P6SM BKN035=

USA.gov is the U.S. government's official web portal to all federal, state and local government web resources and services.